Time;durP1;ratioP1;P1;durP2;ratioP2;P2;SDS_P1;SDS_P2;PMS_P1;PMS_P2;Temp;Humidity;BMP_temperature;BMP_pressure;BME280_temperature;BME280_humidity;BME280_pressure;Samples;Min_cycle;Max_cycle;Signal;HPM_P1;HPM_P2
2021/12/11 00:01:18;;;;;;;18.83;11.77;;;0.50;99.90;;;;;;5024716;28;20028;-93
2021/12/11 00:04:05;;;;;;;17.87;9.87;;;0.50;99.90;;;;;;5029531;28;20041;-83
2021/12/11 00:06:53;;;;;;;18.90;10.15;;;0.50;99.90;;;;;;5035972;28;20059;-82
2021/12/11 00:09:45;;;;;;;16.63;9.47;;;0.40;99.90;;;;;;5048504;28;20040;-83
2021/12/11 00:12:22;;;;;;;19.40;11.20;;;0.50;99.90;;;;;;5038974;28;20033;-93
2021/12/11 00:15:07;;;;;;;16.63;10.43;;;0.40;99.90;;;;;;5035156;28;20041;-91
2021/12/11 00:17:39;;;;;;;19.57;10.63;;;0.40;99.90;;;;;;5018750;28;20036;-83
2021/12/11 00:20:14;;;;;;;22.13;14.20;;;0.40;99.90;;;;;;5037673;28;20028;-90
2021/12/11 00:25:43;;;;;;;18.97;12.60;;;0.40;99.90;;;;;;5053066;28;20043;-89
2021/12/11 00:28:15;;;;;;;15.33;9.83;;;0.40;99.90;;;;;;5031221;28;20044;-84
2021/12/11 00:30:45;;;;;;;20.80;13.03;;;0.40;99.90;;;;;;5041057;28;20044;-83
2021/12/11 00:33:24;;;;;;;15.57;11.00;;;0.40;99.90;;;;;;5056042;28;20036;-84
2021/12/11 00:35:55;;;;;;;23.50;11.47;;;0.40;99.90;;;;;;5025615;28;20032;-84
2021/12/11 00:38:40;;;;;;;21.43;11.30;;;0.40;99.90;;;;;;5051237;28;20033;-82
2021/12/11 00:41:40;;;;;;;20.33;11.20;;;0.40;99.90;;;;;;5040642;28;20045;-83
2021/12/11 00:44:09;;;;;;;20.55;11.45;;;0.40;99.90;;;;;;5068310;28;20059;-90
2021/12/11 00:46:36;;;;;;;15.10;10.17;;;0.40;99.90;;;;;;5028443;28;20083;-86
2021/12/11 00:49:09;;;;;;;22.07;11.77;;;0.40;99.90;;;;;;5041693;28;20040;-82
2021/12/11 00:51:36;;;;;;;23.97;13.07;;;0.40;99.90;;;;;;5055064;28;20094;-84
2021/12/11 00:54:04;;;;;;;22.03;13.80;;;0.40;99.90;;;;;;5038401;28;20442;-84
2021/12/11 00:56:35;;;;;;;20.20;12.57;;;0.40;99.90;;;;;;5018270;28;20036;-90
2021/12/11 00:59:08;;;;;;;21.33;13.07;;;0.40;99.90;;;;;;5041220;28;20032;-83
2021/12/11 01:01:52;;;;;;;26.63;14.93;;;0.40;99.90;;;;;;5056310;28;20043;-82
2021/12/11 01:04:23;;;;;;;24.77;14.50;;;0.40;99.90;;;;;;5041842;28;20059;-87
2021/12/11 01:06:52;;;;;;;21.60;12.97;;;0.40;99.90;;;;;;5042061;28;20044;-82
2021/12/11 01:09:42;;;;;;;21.97;12.57;;;0.50;99.90;;;;;;5060409;28;20039;-88
2021/12/11 01:12:42;;;;;;;21.57;13.33;;;0.50;99.90;;;;;;5062119;28;20037;-90
2021/12/11 01:15:33;;;;;;;18.53;12.67;;;0.50;99.90;;;;;;5025732;28;20035;-88
2021/12/11 01:21:33;;;;;;;19.73;10.90;;;0.40;99.90;;;;;;5046519;28;20036;-87
2021/12/11 01:26:36;;;;;;;19.60;12.02;;;0.40;99.90;;;;;;5036978;28;20055;-89
2021/12/11 01:29:07;;;;;;;22.43;12.93;;;0.50;99.90;;;;;;5017676;28;20140;-92
2021/12/11 01:31:36;;;;;;;22.93;12.13;;;0.50;99.90;;;;;;5016340;28;20495;-91
2021/12/11 01:34:05;;;;;;;17.23;11.20;;;0.50;99.90;;;;;;5018237;28;20036;-90
2021/12/11 01:36:34;;;;;;;20.87;11.53;;;0.50;99.90;;;;;;5022188;28;20028;-90
2021/12/11 01:39:05;;;;;;;14.97;9.30;;;0.50;99.90;;;;;;5017549;28;20041;-90
2021/12/11 01:41:35;;;;;;;19.60;11.60;;;0.60;99.90;;;;;;5020555;28;20033;-90
2021/12/11 01:44:20;;;;;;;19.27;11.20;;;0.60;99.90;;;;;;5014348;28;20042;-91
2021/12/11 01:47:06;;;;;;;20.87;12.80;;;0.60;99.90;;;;;;5019889;28;20380;-90
2021/12/11 01:49:45;;;;;;;16.67;11.40;;;0.60;99.90;;;;;;5019398;28;20037;-91
2021/12/11 01:52:38;;;;;;;18.67;12.30;;;0.70;99.90;;;;;;5019016;28;20036;-90
2021/12/11 01:55:19;;;;;;;18.73;11.73;;;0.60;99.90;;;;;;5018725;28;20372;-91
2021/12/11 01:57:52;;;;;;;23.80;12.93;;;0.60;99.90;;;;;;5016082;28;20036;-90
2021/12/11 02:00:34;;;;;;;18.23;11.80;;;0.60;99.90;;;;;;5018921;28;20037;-90
2021/12/11 02:03:23;;;;;;;;;;;;;;;;;;;;;
2021/12/11 02:05:55;;;;;;;19.57;11.63;;;0.70;99.90;;;;;;5031845;28;20518;-91
2021/12/11 02:09:12;;;;;;;;;;;;;;;;;;;;;
2021/12/11 02:11:46;;;;;;;19.23;12.60;;;0.70;99.90;;;;;;5035241;28;20048;-89
2021/12/11 02:14:31;;;;;;;21.07;12.37;;;0.60;99.90;;;;;;5003295;28;20041;-89
2021/12/11 02:17:23;;;;;;;18.23;11.57;;;0.60;99.90;;;;;;5020098;28;20048;-89
2021/12/11 02:19:58;;;;;;;19.17;12.50;;;0.60;99.90;;;;;;5018375;28;20044;-90
2021/12/11 02:22:30;;;;;;;16.73;10.93;;;0.60;99.90;;;;;;5021274;28;20049;-90
2021/12/11 02:25:05;;;;;;;18.60;11.75;;;0.60;99.90;;;;;;5018423;28;20475;-90
2021/12/11 02:27:52;;;;;;;22.53;14.17;;;0.60;99.90;;;;;;5033527;28;20045;-90
2021/12/11 02:30:36;;;;;;;20.63;12.20;;;0.60;99.90;;;;;;5017803;28;20052;-91
2021/12/11 02:33:14;;;;;;;17.37;10.80;;;0.60;99.90;;;;;;5018077;28;20037;-91
2021/12/11 02:35:52;;;;;;;18.03;10.83;;;0.60;99.90;;;;;;5019049;28;20365;-91
2021/12/11 02:38:43;;;;;;;16.20;10.40;;;0.60;99.90;;;;;;5018279;28;20388;-91
2021/12/11 02:41:25;;;;;;;16.87;11.53;;;0.60;99.90;;;;;;5019704;28;20388;-90
2021/12/11 02:43:58;;;;;;;17.35;11.05;;;0.60;99.90;;;;;;5035232;28;20040;-91
2021/12/11 02:46:34;;;;;;;16.53;10.30;;;0.60;99.90;;;;;;5020253;28;20040;-91
2021/12/11 02:49:28;;;;;;;16.63;10.33;;;0.70;99.90;;;;;;5019167;28;20032;-90
2021/12/11 02:52:09;;;;;;;17.53;10.63;;;0.60;99.90;;;;;;5027928;28;20040;-90
2021/12/11 02:54:59;;;;;;;14.87;9.40;;;0.60;99.90;;;;;;5029208;28;20060;-88
2021/12/11 02:57:33;;;;;;;14.20;9.03;;;0.60;99.90;;;;;;5021595;28;20571;-88
2021/12/11 03:00:18;;;;;;;14.00;9.20;;;0.60;99.90;;;;;;5021837;28;20038;-88
2021/12/11 03:02:50;;;;;;;16.07;10.33;;;0.60;99.90;;;;;;5021584;28;20045;-91
2021/12/11 03:05:26;;;;;;;19.90;10.67;;;0.50;99.90;;;;;;5017592;28;20067;-91
2021/12/11 03:07:54;;;;;;;21.23;14.10;;;0.60;99.90;;;;;;5015860;28;20760;-90
2021/12/11 03:10:25;;;;;;;21.03;14.10;;;0.60;99.90;;;;;;5020456;28;20036;-90
2021/12/11 03:12:55;;;;;;;21.63;13.43;;;0.60;99.90;;;;;;5016941;28;20033;-90
2021/12/11 03:15:23;;;;;;;23.97;13.87;;;0.60;99.90;;;;;;5001044;28;20404;-89
2021/12/11 03:17:50;;;;;;;19.77;12.00;;;0.60;99.90;;;;;;5016611;28;20053;-89
2021/12/11 03:20:23;;;;;;;21.47;13.33;;;0.60;99.90;;;;;;5019436;28;20040;-90
2021/12/11 03:22:51;;;;;;;19.80;10.85;;;0.60;99.90;;;;;;5034161;28;20384;-89
2021/12/11 03:25:29;;;;;;;17.50;10.93;;;0.60;99.90;;;;;;5017173;28;20028;-89
2021/12/11 03:28:10;;;;;;;17.53;10.17;;;0.60;99.90;;;;;;5018161;28;20044;-90
2021/12/11 03:30:45;;;;;;;20.20;11.90;;;0.60;99.90;;;;;;5021595;28;20392;-90
2021/12/11 03:33:18;;;;;;;15.30;10.33;;;0.60;99.90;;;;;;5023389;28;20037;-90
2021/12/11 03:35:49;;;;;;;17.27;10.83;;;0.60;99.90;;;;;;5016726;28;20045;-89
2021/12/11 03:38:19;;;;;;;16.20;9.87;;;0.60;99.90;;;;;;5018396;28;20056;-89
2021/12/11 03:40:52;;;;;;;17.17;10.53;;;0.60;99.90;;;;;;5016082;28;20515;-90
2021/12/11 03:43:26;;;;;;;16.07;9.93;;;0.60;99.90;;;;;;5020408;28;20385;-89
2021/12/11 03:45:57;;;;;;;15.63;9.43;;;0.60;99.90;;;;;;5020219;28;20433;-90
2021/12/11 03:48:44;;;;;;;21.10;12.10;;;0.60;99.90;;;;;;5014835;28;20495;-89
2021/12/11 03:51:14;;;;;;;24.23;13.67;;;0.60;99.90;;;;;;5019157;28;20045;-91
2021/12/11 03:53:44;;;;;;;28.00;14.67;;;0.60;99.90;;;;;;5017461;28;20044;-90
2021/12/11 03:56:37;;;;;;;23.33;14.80;;;0.60;99.90;;;;;;5018034;28;20025;-89
2021/12/11 03:59:33;;;;;;;26.40;15.37;;;0.60;99.90;;;;;;5015937;28;20380;-90
2021/12/11 04:02:14;;;;;;;25.57;15.57;;;0.50;99.90;;;;;;5019199;28;20503;-90
2021/12/11 04:04:53;;;;;;;26.00;15.67;;;0.50;99.90;;;;;;5017050;28;20037;-90
2021/12/11 04:07:30;;;;;;;25.87;15.77;;;0.40;99.90;;;;;;5014056;28;20037;-89
2021/12/11 04:10:09;;;;;;;26.73;16.07;;;0.30;99.90;;;;;;5015870;28;20033;-90
2021/12/11 04:12:38;;;;;;;29.73;19.13;;;0.30;99.90;;;;;;5018091;28;20049;-90
2021/12/11 04:15:08;;;;;;;26.17;17.17;;;0.20;99.90;;;;;;5017930;28;20059;-90
2021/12/11 04:17:35;;;;;;;24.50;16.03;;;0.20;99.90;;;;;;5016319;28;20492;-91
2021/12/11 04:20:11;;;;;;;25.67;15.17;;;0.10;99.90;;;;;;5015496;28;20037;-90
2021/12/11 04:22:41;;;;;;;23.67;14.73;;;0.10;99.90;;;;;;5016946;28;20388;-90
2021/12/11 04:25:15;;;;;;;20.17;13.13;;;0.10;99.90;;;;;;5018156;28;20492;-90
2021/12/11 04:27:42;;;;;;;21.00;12.50;;;0.10;99.90;;;;;;5019230;28;20038;-90
2021/12/11 04:30:19;;;;;;;19.47;11.73;;;0.10;99.90;;;;;;5022467;28;20025;-90
2021/12/11 04:32:54;;;;;;;16.90;10.37;;;0.10;99.90;;;;;;5020954;28;20068;-89
2021/12/11 04:35:26;;;;;;;16.02;10.10;;;0.10;99.90;;;;;;5003065;28;20029;-87
2021/12/11 04:38:07;;;;;;;18.15;10.85;;;0.10;99.90;;;;;;5021974;28;20033;-89
2021/12/11 04:40:39;;;;;;;14.93;9.73;;;0.10;99.90;;;;;;5004710;28;20037;-86
2021/12/11 04:51:41;;;;;;;18.40;10.83;;;0.30;99.90;;;;;;5071168;28;20044;-88
2021/12/11 04:55:11;;;;;;;21.40;10.50;;;0.30;99.90;;;;;;5089547;28;20020;-87
2021/12/11 05:12:29;;;;;;;;;;;;;;;;;;;;;
2021/12/11 05:22:04;;;;;;;19.07;11.67;;;0.80;99.90;;;;;;5049759;28;20036;-83
2021/12/11 05:25:30;;;;;;;17.30;11.23;;;0.80;99.90;;;;;;5038679;28;20036;-82
2021/12/11 05:28:30;;;;;;;19.60;11.40;;;0.90;99.90;;;;;;5047862;28;20045;-82
2021/12/11 05:31:18;;;;;;;21.23;12.73;;;0.90;99.90;;;;;;5040798;28;20407;-82
2021/12/11 05:33:55;;;;;;;21.53;12.33;;;0.90;99.90;;;;;;5018480;28;20041;-82
2021/12/11 05:36:31;;;;;;;21.53;13.50;;;0.90;99.90;;;;;;5059075;28;20028;-82
2021/12/11 05:39:15;;;;;;;20.90;13.37;;;0.90;99.90;;;;;;5013817;28;20050;-82
2021/12/11 05:41:44;;;;;;;17.73;12.13;;;1.00;99.90;;;;;;5017795;28;20037;-82
2021/12/11 05:44:23;;;;;;;17.33;11.73;;;1.00;99.90;;;;;;5021344;28;20033;-82
2021/12/11 05:46:58;;;;;;;18.40;11.87;;;1.00;99.90;;;;;;5018632;28;20502;-82
2021/12/11 05:49:29;;;;;;;21.83;13.17;;;1.00;99.90;;;;;;5016363;28;20029;-82
2021/12/11 05:52:03;;;;;;;20.90;13.83;;;1.00;99.90;;;;;;5021572;28;20044;-82
2021/12/11 05:54:37;;;;;;;21.98;13.23;;;1.10;99.90;;;;;;5034148;28;20045;-81
2021/12/11 05:57:21;;;;;;;22.60;13.03;;;1.10;99.90;;;;;;5017107;28;20048;-83
2021/12/11 05:59:55;;;;;;;23.40;13.83;;;1.10;99.90;;;;;;5016682;28;20029;-82
2021/12/11 06:02:45;;;;;;;23.63;14.10;;;1.20;99.90;;;;;;5019115;28;20048;-80
2021/12/11 06:05:31;;;;;;;20.63;12.67;;;1.20;99.90;;;;;;5017315;28;20386;-81
2021/12/11 06:08:15;;;;;;;23.00;13.97;;;1.20;99.90;;;;;;5018671;28;20298;-81
2021/12/11 06:10:44;;;;;;;21.13;13.77;;;1.20;99.90;;;;;;5050201;28;20029;-81
2021/12/11 06:13:25;;;;;;;23.60;13.33;;;1.20;99.90;;;;;;5037296;28;20048;-81
2021/12/11 06:15:57;;;;;;;19.33;12.43;;;1.30;99.90;;;;;;5003283;28;20044;-82
2021/12/11 06:18:24;;;;;;;23.75;13.00;;;1.30;99.90;;;;;;5014788;28;20053;-81
2021/12/11 06:20:54;;;;;;;22.43;12.90;;;1.30;99.90;;;;;;5018240;28;20040;-81
2021/12/11 06:23:22;;;;;;;19.90;13.23;;;1.30;99.90;;;;;;5032284;28;20044;-80
2021/12/11 06:25:51;;;;;;;20.10;13.07;;;1.30;99.90;;;;;;5004850;28;20060;-87
2021/12/11 06:28:24;;;;;;;21.37;12.87;;;1.40;99.90;;;;;;4998920;28;20059;-87
2021/12/11 06:30:52;;;;;;;24.53;14.70;;;1.40;99.90;;;;;;5016769;28;20037;-87
2021/12/11 06:33:21;;;;;;;20.40;13.53;;;1.40;99.90;;;;;;5016577;28;20079;-86
2021/12/11 06:35:53;;;;;;;23.47;14.47;;;1.40;99.90;;;;;;5018931;28;20044;-86
2021/12/11 06:38:23;;;;;;;22.23;13.70;;;1.40;99.90;;;;;;5031013;28;20040;-86
2021/12/11 06:40:51;;;;;;;25.10;14.83;;;1.50;99.90;;;;;;5018590;28;20480;-78
2021/12/11 06:43:18;;;;;;;20.97;13.30;;;1.50;99.90;;;;;;4999881;28;20460;-78
2021/12/11 06:45:45;;;;;;;36.03;17.77;;;1.50;99.90;;;;;;5048165;28;20040;-79
2021/12/11 06:48:14;;;;;;;31.67;17.20;;;1.50;99.90;;;;;;4999739;28;20053;-78
2021/12/11 06:50:40;;;;;;;28.10;16.37;;;1.50;99.90;;;;;;5022226;28;20041;-78
2021/12/11 06:53:35;;;;;;;26.87;15.43;;;1.50;99.90;;;;;;5016123;28;20041;-80
2021/12/11 06:56:07;;;;;;;29.30;17.07;;;1.50;99.90;;;;;;5028064;28;21349;-84
2021/12/11 06:58:34;;;;;;;28.20;15.23;;;1.60;99.90;;;;;;5012615;28;20045;-83
2021/12/11 07:01:02;;;;;;;30.17;16.63;;;1.50;99.90;;;;;;4982791;28;20400;-83
2021/12/11 07:03:33;;;;;;;31.63;16.83;;;1.60;99.90;;;;;;5017112;28;20042;-84
2021/12/11 07:06:05;;;;;;;26.57;16.57;;;1.50;99.90;;;;;;5030685;28;20045;-87
2021/12/11 07:08:38;;;;;;;26.57;14.70;;;1.60;99.90;;;;;;5013444;28;20055;-86
2021/12/11 07:11:12;;;;;;;24.70;14.17;;;1.60;99.90;;;;;;5052195;28;20036;-81
2021/12/11 07:13:40;;;;;;;23.27;13.43;;;1.60;99.90;;;;;;5049523;28;20496;-81
2021/12/11 07:16:08;;;;;;;21.63;13.13;;;1.70;99.90;;;;;;4999144;28;20041;-81
2021/12/11 07:18:38;;;;;;;22.33;13.67;;;1.70;99.90;;;;;;5032332;28;20040;-81
2021/12/11 07:21:09;;;;;;;21.50;12.40;;;1.70;99.90;;;;;;5034440;28;20045;-84
2021/12/11 07:23:45;;;;;;;27.10;13.23;;;1.80;99.90;;;;;;5014356;28;20052;-81
2021/12/11 07:26:16;;;;;;;;;;;1.80;99.90;;;;;;5048775;28;20033;-81
2021/12/11 07:28:52;;;;;;;20.83;12.03;;;1.80;99.90;;;;;;5029250;28;19916;-81
2021/12/11 07:31:21;;;;;;;22.80;12.17;;;1.90;99.90;;;;;;5015693;28;20036;-81
2021/12/11 07:33:52;;;;;;;20.17;12.20;;;1.90;99.90;;;;;;5010767;28;20041;-84
2021/12/11 07:36:19;;;;;;;30.00;16.67;;;1.90;99.90;;;;;;5033513;28;20048;-83
2021/12/11 07:38:49;;;;;;;30.63;19.80;;;1.90;99.90;;;;;;5001620;28;20073;-86
2021/12/11 07:41:25;;;;;;;38.00;18.70;;;1.90;99.90;;;;;;5018649;28;20044;-85
2021/12/11 07:43:52;;;;;;;35.87;17.47;;;1.90;99.90;;;;;;4999572;28;20040;-86
2021/12/11 07:46:23;;;;;;;36.53;19.57;;;1.90;99.90;;;;;;5014397;28;20048;-89
2021/12/11 07:48:50;;;;;;;35.07;17.93;;;1.90;99.90;;;;;;5013667;28;20140;-86
2021/12/11 07:51:19;;;;;;;31.73;16.40;;;1.90;99.90;;;;;;4983018;28;20044;-86
2021/12/11 07:53:46;;;;;;;29.80;17.57;;;1.90;99.90;;;;;;5017295;28;20041;-86
2021/12/11 07:56:13;;;;;;;31.30;16.87;;;1.90;99.90;;;;;;5015637;28;20034;-86
2021/12/11 07:58:40;;;;;;;35.63;17.87;;;2.00;99.90;;;;;;5012579;28;20048;-86
2021/12/11 08:01:11;;;;;;;35.40;18.27;;;2.00;99.90;;;;;;5000334;28;20040;-81
2021/12/11 08:03:38;;;;;;;32.20;19.20;;;2.00;99.90;;;;;;5041456;28;20033;-81
2021/12/11 08:06:07;;;;;;;36.37;19.03;;;2.00;99.90;;;;;;5048099;28;20475;-81
2021/12/11 08:08:34;;;;;;;30.60;16.13;;;2.00;99.90;;;;;;5025645;28;20039;-86
2021/12/11 08:11:06;;;;;;;30.97;16.73;;;2.00;99.90;;;;;;5018783;28;20036;-81
2021/12/11 08:13:35;;;;;;;33.47;17.17;;;2.00;99.90;;;;;;5019003;28;20045;-81
2021/12/11 08:16:02;;;;;;;30.57;17.07;;;2.00;99.90;;;;;;5038602;28;20033;-82
2021/12/11 08:18:28;;;;;;;29.60;16.23;;;2.00;99.90;;;;;;5032060;28;20037;-82
2021/12/11 08:20:55;;;;;;;27.70;16.07;;;2.00;99.90;;;;;;5035708;28;20052;-86
2021/12/11 08:23:25;;;;;;;29.47;15.87;;;2.10;99.90;;;;;;5003866;28;20036;-85
2021/12/11 08:25:53;;;;;;;27.80;14.37;;;2.10;99.90;;;;;;5034752;28;20040;-85
2021/12/11 08:28:26;;;;;;;31.03;16.07;;;2.10;99.90;;;;;;5016743;28;20056;-85
2021/12/11 08:30:54;;;;;;;33.03;16.27;;;2.10;99.90;;;;;;5022330;28;20396;-85
2021/12/11 08:33:22;;;;;;;32.03;17.00;;;2.20;99.90;;;;;;5002491;28;20037;-82
2021/12/11 08:35:50;;;;;;;30.93;16.03;;;2.20;99.90;;;;;;5037613;28;20040;-81
2021/12/11 08:38:17;;;;;;;35.40;16.40;;;2.30;99.90;;;;;;5033593;28;20057;-82
2021/12/11 08:40:50;;;;;;;29.93;16.10;;;2.30;99.90;;;;;;5053447;28;20037;-82
2021/12/11 08:43:19;;;;;;;26.52;14.70;;;2.30;99.90;;;;;;5023871;28;20045;-80
2021/12/11 08:46:03;;;;;;;29.57;14.63;;;2.40;99.90;;;;;;5020684;28;20052;-81
2021/12/11 08:48:32;;;;;;;28.67;13.73;;;2.40;99.90;;;;;;5030129;28;20029;-82
2021/12/11 08:51:08;;;;;;;39.73;21.73;;;2.50;99.90;;;;;;5035350;28;20044;-82
2021/12/11 08:53:43;;;;;;;32.57;16.97;;;2.50;99.90;;;;;;5054655;28;20060;-82
2021/12/11 08:56:35;;;;;;;33.10;18.17;;;2.60;99.90;;;;;;5023900;28;20416;-80
2021/12/11 08:59:07;;;;;;;34.70;17.43;;;2.60;99.90;;;;;;5024465;28;20047;-80
2021/12/11 09:01:52;;;;;;;27.90;16.77;;;2.70;99.90;;;;;;5040176;28;20398;-87
2021/12/11 09:04:33;;;;;;;28.47;16.20;;;2.70;99.90;;;;;;5036261;28;20496;-80
2021/12/11 09:07:06;;;;;;;30.30;15.35;;;2.70;99.90;;;;;;5034460;28;20502;-85
2021/12/11 09:09:44;;;;;;;33.63;15.80;;;2.80;99.90;;;;;;5029799;28;20416;-87
2021/12/11 09:12:25;;;;;;;32.10;18.47;;;2.80;99.90;;;;;;5033882;28;20037;-86
2021/12/11 09:15:14;;;;;;;33.07;19.67;;;2.80;99.90;;;;;;5053280;28;20047;-86
2021/12/11 09:18:06;;;;;;;32.80;18.53;;;2.80;99.90;;;;;;5032853;28;20076;-80
2021/12/11 09:20:56;;;;;;;30.83;17.27;;;2.80;99.90;;;;;;5032389;28;20412;-80
2021/12/11 09:23:47;;;;;;;35.90;18.17;;;2.80;99.90;;;;;;5055287;28;20029;-83
2021/12/11 09:26:28;;;;;;;32.33;18.07;;;2.90;99.90;;;;;;5036877;28;20107;-81
2021/12/11 09:29:12;;;;;;;30.07;16.63;;;3.00;99.90;;;;;;5036453;28;20045;-83
2021/12/11 09:32:02;;;;;;;33.50;17.80;;;3.10;99.90;;;;;;5030715;28;20023;-82
2021/12/11 09:34:38;;;;;;;36.63;19.23;;;3.10;99.90;;;;;;5054161;28;20033;-80
2021/12/11 09:37:10;;;;;;;41.70;20.47;;;3.20;99.90;;;;;;5039767;28;20047;-82
2021/12/11 09:39:51;;;;;;;38.40;19.80;;;3.30;99.90;;;;;;5035940;28;20028;-84
2021/12/11 09:42:18;;;;;;;36.50;19.13;;;3.40;99.90;;;;;;5036702;28;20045;-83
2021/12/11 09:44:55;;;;;;;36.63;18.23;;;3.40;99.90;;;;;;5033305;28;20035;-83
2021/12/11 09:47:29;;;;;;;32.97;17.53;;;3.40;99.90;;;;;;5022149;28;20041;-84
2021/12/11 09:50:03;;;;;;;39.43;19.70;;;3.50;99.90;;;;;;5037569;28;20051;-85
2021/12/11 09:52:32;;;;;;;36.53;18.70;;;3.60;99.90;;;;;;5020218;28;20043;-82
2021/12/11 09:55:25;;;;;;;38.83;18.83;;;3.70;99.90;;;;;;5037699;28;20044;-86
2021/12/11 09:57:56;;;;;;;37.13;19.03;;;3.70;99.90;;;;;;5035663;28;20395;-82
2021/12/11 10:00:40;;;;;;;36.27;19.13;;;3.80;99.90;;;;;;5038733;28;20486;-82
2021/12/11 10:03:16;;;;;;;35.53;18.83;;;3.90;99.90;;;;;;5024652;28;20383;-86
2021/12/11 10:05:55;;;;;;;;;;;3.90;99.90;;;;;;5031718;28;20417;-87
2021/12/11 10:08:37;;;;;;;39.22;19.90;;;4.00;99.90;;;;;;5022941;28;19913;-85
2021/12/11 10:11:17;;;;;;;37.90;21.07;;;4.10;99.90;;;;;;5051596;28;20333;-86
2021/12/11 10:13:53;;;;;;;37.35;19.13;;;4.10;99.90;;;;;;5019438;28;20036;-86
2021/12/11 10:16:25;;;;;;;31.25;18.67;;;4.20;99.90;;;;;;5021271;28;20052;-86
2021/12/11 10:18:53;;;;;;;36.33;20.33;;;4.20;99.90;;;;;;5052151;28;20479;-84
2021/12/11 10:21:30;;;;;;;39.87;20.57;;;4.30;99.90;;;;;;5022151;28;20480;-83
2021/12/11 10:23:59;;;;;;;33.90;19.23;;;4.30;99.90;;;;;;5025963;28;20044;-85
2021/12/11 10:26:27;;;;;;;34.10;19.33;;;4.50;99.90;;;;;;5042517;28;20048;-85
2021/12/11 10:28:57;;;;;;;35.85;19.52;;;4.50;99.90;;;;;;5058717;28;20844;-85
2021/12/11 10:31:30;;;;;;;40.88;20.52;;;4.60;99.90;;;;;;5023788;28;20060;-83
2021/12/11 10:34:02;;;;;;;34.97;18.85;;;4.60;99.90;;;;;;5053577;28;20029;-82
2021/12/11 10:36:33;;;;;;;35.92;19.13;;;4.70;99.90;;;;;;5036796;28;20476;-83
2021/12/11 10:39:08;;;;;;;42.78;19.00;;;4.80;99.90;;;;;;5018079;28;20040;-82
2021/12/11 10:41:38;;;;;;;36.38;19.23;;;4.80;99.90;;;;;;5050593;28;20392;-84
2021/12/11 10:44:32;;;;;;;34.50;18.15;;;4.80;99.90;;;;;;5037693;28;20392;-82
2021/12/11 10:47:04;;;;;;;44.72;21.92;;;4.90;99.90;;;;;;5015492;28;20396;-83
2021/12/11 10:49:41;;;;;;;54.13;22.17;;;4.90;99.90;;;;;;5017385;28;20053;-82
2021/12/11 10:52:27;;;;;;;51.50;19.42;;;4.90;99.90;;;;;;5054904;28;20492;-85
2021/12/11 10:55:17;;;;;;;37.60;18.30;;;4.90;99.90;;;;;;5020995;28;20037;-87
2021/12/11 10:57:45;;;;;;;35.00;17.05;;;4.90;99.90;;;;;;5024659;28;20392;-86
2021/12/11 11:00:45;;;;;;;33.97;15.13;;;4.90;99.90;;;;;;5020992;28;20037;-86
2021/12/11 11:03:14;;;;;;;50.10;17.30;;;4.90;99.90;;;;;;5025667;28;20052;-83
2021/12/11 11:05:46;;;;;;;37.10;17.27;;;4.90;99.90;;;;;;5035497;28;20060;-87
2021/12/11 11:08:25;;;;;;;34.28;17.67;;;4.90;99.90;;;;;;5019470;28;20038;-86
2021/12/11 11:11:01;;;;;;;51.58;20.42;;;4.90;99.90;;;;;;5050981;28;20041;-85
2021/12/11 11:13:46;;;;;;;33.45;15.73;;;4.90;99.90;;;;;;5048162;28;20469;-86
2021/12/11 11:16:15;;;;;;;44.30;18.88;;;5.00;99.90;;;;;;5016427;28;20492;-86
2021/12/11 11:18:55;;;;;;;32.30;15.63;;;5.00;99.90;;;;;;5010970;28;20033;-85
2021/12/11 11:21:32;;;;;;;31.13;15.43;;;5.00;99.90;;;;;;5049319;28;20480;-86
2021/12/11 11:24:03;;;;;;;36.72;16.48;;;5.00;99.90;;;;;;5014389;28;20523;-86
2021/12/11 11:26:33;;;;;;;36.03;17.92;;;5.10;99.90;;;;;;5046962;28;20029;-84
2021/12/11 11:29:19;;;;;;;31.77;15.40;;;5.10;99.90;;;;;;5012261;28;21274;-86
2021/12/11 11:31:52;;;;;;;36.30;18.08;;;5.10;99.90;;;;;;5043538;28;20029;-78
2021/12/11 11:34:44;;;;;;;29.00;15.45;;;5.10;99.90;;;;;;5025662;28;20049;-82
2021/12/11 11:37:16;;;;;;;31.60;16.25;;;5.00;99.90;;;;;;5034904;28;20806;-89
2021/12/11 11:39:48;;;;;;;42.13;16.73;;;5.00;99.90;;;;;;5018168;28;20044;-93
2021/12/11 11:42:20;;;;;;;40.40;17.17;;;5.00;99.90;;;;;;5051537;28;20020;-81
2021/12/11 11:49:59;;;;;;;28.27;14.38;;;5.10;99.90;;;;;;5066624;28;20037;-83
2021/12/11 11:52:28;;;;;;;27.10;14.65;;;5.30;99.90;;;;;;5059097;28;20033;-81
2021/12/11 11:58:54;;;;;;;29.13;15.05;;;5.40;99.90;;;;;;5061431;28;20736;-85
2021/12/11 12:05:35;;;;;;;27.80;13.82;;;5.40;99.90;;;;;;5046293;28;20059;-85
2021/12/11 12:08:13;;;;;;;63.50;18.50;;;5.40;99.90;;;;;;5034541;28;20075;-81
2021/12/11 12:10:51;;;;;;;31.38;15.85;;;5.40;99.90;;;;;;5037854;28;20044;-83
2021/12/11 12:13:24;;;;;;;23.10;14.67;;;5.40;99.90;;;;;;5053827;28;20033;-83
2021/12/11 12:16:26;;;;;;;21.67;13.95;;;5.40;99.90;;;;;;5044166;28;20032;-81
2021/12/11 12:18:53;;;;;;;25.08;14.68;;;5.40;99.90;;;;;;5050226;28;20467;-81
2021/12/11 12:21:20;;;;;;;23.30;13.48;;;5.50;99.90;;;;;;5067114;28;20068;-81
2021/12/11 12:23:47;;;;;;;23.55;14.55;;;5.50;99.90;;;;;;5052393;28;20539;-81
2021/12/11 12:26:22;;;;;;;23.60;14.90;;;5.60;99.90;;;;;;5034797;28;20029;-87
2021/12/11 12:28:50;;;;;;;25.67;15.20;;;5.50;99.90;;;;;;5031169;28;21128;-84
2021/12/11 12:31:32;;;;;;;31.48;15.27;;;5.50;99.90;;;;;;5030194;28;20041;-83
2021/12/11 12:33:59;;;;;;;23.27;13.95;;;5.40;99.90;;;;;;5030442;28;20037;-83
2021/12/11 12:36:28;;;;;;;24.20;14.18;;;5.40;99.90;;;;;;5030846;28;20049;-78
2021/12/11 12:38:56;;;;;;;24.75;14.43;;;5.40;99.90;;;;;;5034202;28;20040;-80
2021/12/11 12:41:31;;;;;;;24.67;14.45;;;5.30;99.90;;;;;;5057388;28;20053;-80
2021/12/11 12:44:19;;;;;;;32.33;16.13;;;5.30;99.90;;;;;;5017978;28;20472;-79
2021/12/11 12:46:55;;;;;;;25.67;15.75;;;5.40;99.90;;;;;;5015151;28;20044;-79
2021/12/11 12:49:24;;;;;;;27.52;18.00;;;5.30;99.90;;;;;;5034097;28;20041;-80
2021/12/11 12:51:51;;;;;;;29.58;18.45;;;5.40;99.90;;;;;;5032349;28;20030;-79
2021/12/11 12:54:21;;;;;;;26.08;15.40;;;5.40;99.90;;;;;;5008191;28;20041;-79
2021/12/11 12:56:54;;;;;;;31.65;16.85;;;5.50;99.90;;;;;;5040364;28;20491;-79
2021/12/11 12:59:33;;;;;;;26.25;15.68;;;5.50;99.90;;;;;;5034250;28;20388;-82
2021/12/11 13:02:05;;;;;;;28.50;16.02;;;5.60;99.90;;;;;;5020314;28;20037;-81
2021/12/11 13:04:36;;;;;;;28.87;18.00;;;5.60;99.90;;;;;;5035408;28;20053;-81
2021/12/11 13:07:08;;;;;;;28.42;18.23;;;5.70;99.90;;;;;;5057184;28;20063;-81
2021/12/11 13:10:02;;;;;;;33.53;20.67;;;5.70;99.90;;;;;;5050045;28;20033;-82
2021/12/11 13:12:41;;;;;;;36.05;22.25;;;5.70;99.90;;;;;;5051900;28;20044;-83
2021/12/11 13:15:19;;;;;;;31.42;19.75;;;5.80;99.90;;;;;;5020132;28;20040;-83
2021/12/11 13:17:50;;;;;;;30.33;16.70;;;5.80;99.90;;;;;;5052955;28;20029;-81
2021/12/11 13:20:27;;;;;;;34.42;19.60;;;5.80;99.90;;;;;;5034532;28;20048;-81
2021/12/11 13:22:57;;;;;;;28.77;16.05;;;5.80;99.90;;;;;;5035308;28;20036;-81
2021/12/11 13:25:41;;;;;;;32.42;18.10;;;5.80;99.90;;;;;;5000709;28;20520;-82
2021/12/11 13:28:10;;;;;;;28.35;16.65;;;5.80;99.90;;;;;;5028715;28;20036;-81
2021/12/11 13:30:45;;;;;;;30.85;16.00;;;5.80;99.90;;;;;;5016563;28;20460;-81
2021/12/11 13:33:12;;;;;;;37.00;18.63;;;5.80;99.90;;;;;;5016005;28;20024;-82
2021/12/11 13:35:43;;;;;;;32.85;19.20;;;5.80;99.90;;;;;;5034169;28;20048;-82
2021/12/11 13:38:15;;;;;;;34.97;19.85;;;5.90;99.90;;;;;;5030204;28;20035;-81
2021/12/11 13:40:47;;;;;;;68.45;24.30;;;5.90;99.90;;;;;;5014877;28;20036;-82
2021/12/11 13:43:14;;;;;;;35.47;20.20;;;5.90;99.90;;;;;;5034469;28;20032;-81
2021/12/11 13:45:46;;;;;;;33.78;18.98;;;5.80;99.90;;;;;;5017335;28;20055;-81
2021/12/11 13:48:15;;;;;;;35.53;20.95;;;5.80;99.90;;;;;;5031827;28;20060;-82
2021/12/11 13:51:13;;;;;;;30.77;18.23;;;5.90;99.90;;;;;;5018418;28;20041;-82
2021/12/11 13:53:40;;;;;;;36.03;21.00;;;5.90;99.90;;;;;;5022094;28;20037;-80
2021/12/11 13:56:11;;;;;;;38.25;20.48;;;5.90;99.90;;;;;;5051614;28;20494;-82
2021/12/11 13:58:38;;;;;;;37.45;21.17;;;5.80;99.90;;;;;;5034823;28;20033;-81
2021/12/11 14:01:11;;;;;;;35.05;21.42;;;5.70;99.90;;;;;;5050451;28;20068;-82
2021/12/11 14:03:39;;;;;;;36.47;20.80;;;5.70;99.90;;;;;;5039158;28;20036;-82
2021/12/11 14:06:09;;;;;;;36.05;21.42;;;5.60;99.90;;;;;;5021739;28;20057;-80
2021/12/11 14:08:38;;;;;;;40.00;20.10;;;5.50;99.90;;;;;;5017346;28;20033;-80
2021/12/11 14:11:08;;;;;;;42.42;20.38;;;5.50;99.90;;;;;;5018035;28;20035;-80
2021/12/11 14:13:37;;;;;;;39.38;20.23;;;5.50;99.90;;;;;;5033687;28;20037;-85
2021/12/11 14:16:06;;;;;;;43.08;20.50;;;5.50;99.90;;;;;;5017933;28;20033;-81